Ride Results

Wingello Forest Ride (26-05-2018)
Ride distance: 80.0 km

Outcomes - Wingello Forest Ride (26-05-2018)
Division No. of Entries Retired / DNE Completed Withdrawn Ineligible V/O Percentage Completed
HW 17 - 14 - - 3 82.35%
MW 47 - 41 - - 6 87.23%
LW 26 - 22 1 - 3 84.62%
JN 13 - 11 - - 2 84.62%
Totals 103 - 88 1 - 14 85.44%
Results - Wingello Forest Ride (26-05-2018)
No. Rider Horse Place Time Leg Speeds Total
Km/Hr
H/R bpm
Heavyweight
460 John Robertson Karabil Asis 1 4:28:00 19.6, 16.3 17.91 36, 48, 55 (Avg:51)
461 James Ryan Cedar Ridge Hy Regard 2 (BC) 5:33:00 15.0, 13.7 14.41 35, 46, 45 (Avg:45)
470 Rhys Norman Owata Park Amirah 3 5:42:00 15.4, 12.7 14.04 34, 42, 60 (Avg:51)
471 Gavin Peacock Eclipse 3 5:42:00 15.4, 12.7 14.04 36, 46, 56 (Avg:51)
463 Keith Sumpner Fonda 5 6:26:00 13.3, 11.5 12.44 39, 44, 50 (Avg:47)
476 Ian Dreghorn Ausden Nile Prins 6 6:29:00 12.8, 11.8 12.34 38, 48, 53 (Avg:50)
462 Kate Johnson Ellie 7 6:44:00 12.6, 11.1 11.88 32, 46, 46 (Avg:46)
465 John Dawson Jon De Le Tison 8 6:46:00 12.2, 11.4 11.82 29, 43, 42 (Avg:42)
467 Vernon Brown Prince 9 6:53:00 12.2, 11.0 11.62 36, 45, 55 (Avg:50)
473 Nigel Colefax Conderosa Ambrosio 10 7:11:00 10.9, 11.3 11.14 42, 44, 51 (Avg:47)
472 Chua Peng Khuan Cedar Ridge Lyric 11 7:18:00 11.4, 10.4 10.96 38, 44, 50 (Avg:47)
474 Con Bouzianis Conderosa Assim 12 7:30:00 10.9, 10.3 10.67 32, 42, 47 (Avg:44)
469 Stuart Lymbery Aloha Trumby 13 7:33:00 10.7, 10.3 10.60 30, 34, 38 (Avg:36)
468 Frank Flissinger Ranjen Spotted Feather 14 7:43:00 12.2, 8.9 10.37 35, 50, 60 (Avg:55)
466 Robert Catlin Avita Metabolics severe L2 0:00:00 16.1, 11.2 - 38, 40, 64 (Avg:52)
464 Steve Finnane Bobby Lame L2 0:00:00 12.8, 10.8 - 36, 46, 60 (Avg:53)
475 Kirsty Carter Henley Farm Farhan Lame L1 0:00:00 11.3 - 32, 60 (Avg:60)
Middleweight
404 Ian Curtis Blake's Heaven Summer Wind 1 (BC) 4:03:00 20.4, 19.0 19.75 31, 48, 54 (Avg:51)
415 Simon Bain Akifa Farras Ice 2 4:33:00 19.5, 15.9 17.58 32, 49, 60 (Avg:54)
419 Clare Feary Die Kinder Junrei 3 5:11:00 16.1, 14.7 15.43 38, 38, 53 (Avg:45)
410 Kristie Wright Earlston Spa 4 5:13:00 16.0, 14.6 15.34 27, 46, 51 (Avg:48)
427 Jessica Drain-Shepheard Thee Prophecy 5 5:14:00 14.6, 16.0 15.29 35, 40, 42 (Avg:41)
441 Kristie Taprell Castlebar Belair 6 5:18:00 14.6, 15.5 15.09 36, 36, 44 (Avg:40)
414 Susan Woodward Jon De Le Hazad 7 5:22:00 15.2, 14.5 14.91 41, 45, 59 (Avg:52)
434 Ellen Vine Coolinda Park Kaliente 8 5:23:00 15.4, 14.2 14.86 52, 40, 44 (Avg:42)
421 Kylie Jonkers Girilambone Comet 9 5:33:00 15.0, 13.7 14.41 31, 33, 41 (Avg:37)
411 Thomas Hermann Wasabi 10 5:42:00 14.3, 13.7 14.04 38, 42, 47 (Avg:44)
405 Cody Holloway Rowallan Magic Simbol 11 5:47:00 14.3, 13.3 13.83 24, 42, 57 (Avg:49)
446 Kristin Reese Rivergum Drover 12 5:55:00 15.6, 11.8 13.52 34, 43, 41 (Avg:42)
416 Sean Griffin Taku 13 6:01:00 13.5, 12.9 13.30 38, 36, 44 (Avg:40)
425 York Shepheard Currowan Apollo 13 6:01:00 13.6, 12.9 13.30 39, 43, 50 (Avg:46)
447 Edward Fernon Evening Star 15 6:13:00 13.5, 12.1 12.87 32, 34, 39 (Avg:36)
440 Linda Tanian Castlebar Sorcerer 15 6:13:00 12.8, 12.9 12.87 28, 38, 39 (Avg:38)
402 Marisa Levitt Scarlet Oaks Faiza 17 6:21:00 13.6, 11.6 12.60 34, 36, 49 (Avg:42)
417 Nicolle Brown Kie-Al Nasarian 18 6:26:00 13.3, 11.5 12.44 36, 46, 51 (Avg:48)
424 Amelia Napier Al-Marah Red Cardinal 19 6:27:00 12.8, 11.9 12.40 33, 48, 55 (Avg:51)
407 Peter Bice Georgie Girl 20 6:33:00 13.4, 11.1 12.21 33, 45, 44 (Avg:44)
412 April Newman Jon De Le Hanna 20 6:33:00 12.2, 12.1 12.21 40, 38, 57 (Avg:47)
420 Kylie Whatman Windradyne Jose 22 6:40:00 11.8, 12.1 12.00 37, 46, 55 (Avg:50)
432 Erica Allan Waugoola Creek Onyx 23 6:52:00 12.5, 10.8 11.65 34, 40, 47 (Avg:43)
401 Michelle George Yinbilliko Sameera Rukan 23 6:52:00 12.5, 10.8 11.65 32, 38, 42 (Avg:40)
14 Chrisovl Morley Rocky Creek Sioux Dee Dee 23 6:52:00 12.6, 10.7 11.65 35, 45, 45 (Avg:45)
436 Diletta Serfilippi Conderosa Aegea 26 7:11:00 10.9, 11.3 11.14 38, 48, 49 (Avg:48)
433 Mohd Halim Abdul Rahim Cedar Ridge Desire 27 7:19:00 11.4, 10.3 10.93 32, 35, 46 (Avg:40)
445 Tom Pankhurst Eminem Vyper 28 7:22:00 13.6, 8.9 10.86 36, 46, 39 (Avg:42)
435 Tom Bouzianis Conderosa Fiona 29 7:30:00 10.9, 10.3 10.67 38, 51, 51 (Avg:51)
423 Jesse Buchan Mountain Ash Tabasco 30 7:33:00 10.9, 10.2 10.60 37, 44, 60 (Avg:52)
429 Anne Lymbery Garonne Park Elmo 30 7:33:00 10.7, 10.3 10.60 35, 41, 50 (Avg:45)
443 Shannon Plowright Starlight 30 7:33:00 10.9, 10.2 10.60 37, 53, 57 (Avg:55)
444 Sharon Phillips Henley Farm Waffar 33 7:37:00 11.4, 9.6 10.50 34, 42, 59 (Avg:50)
409 Lauren Roper Kintamani Katarina 34 7:55:00 10.6, 9.5 10.11 38, 42, 48 (Avg:45)
408 Alexandra Saint John Casamir Stormboy 34 7:55:00 10.6, 9.5 10.11 40, 45, 54 (Avg:49)
418 Sandra Stiller Blake's Heaven Hiraani 36 8:00:00 9.2, 10.8 10.00 30, 38, 40 (Avg:39)
431 Cecilia Stone Blake's Heaven Adventuress 36 8:00:00 9.2, 10.8 10.00 42, 37, 52 (Avg:44)
438 Victoria Bonham Bridle Track Bogart 38 8:34:00 9.8, 8.8 9.34 41, 41, 42 (Avg:41)
422 Bruce Carter Mitanni Hairan 38 8:34:00 9.6, 9.0 9.34 36, 44, 54 (Avg:49)
437 Chris Noonan Sharaul Lucifaa 40 8:35:00 9.8, 8.7 9.32 32, 36, 48 (Avg:42)
430 Rowena Robinson Karumba Nazrani 40 8:35:00 10.2, 8.5 9.32 35, 49, 52 (Avg:50)
426 Tayla Hadzi Oso Solstice Star Lame L2 0:00:00 10.8, 10.6 - 36, 42, 47 (Avg:44)
400 Susan Pritchard Velona El Dargo Heart Rate L2 0:00:00 15.2, 12.0 - 32, 51, 75 (Avg:63)
439 Sharyn Coulston Castlebar Thunder Lame L1 0:00:00 12.8 - 34, 41 (Avg:41)
403 Leanne Hickson Kharbo Gall or injury L1 0:00:00 16.3 - 33, 50 (Avg:50)
413 Rebecca Lees WindradyneSierra Heart Rate L1 0:00:00 10.8 - 40, 63 (Avg:63)
406 John Symons Bell Barry Blue Diamond Lame L1 0:00:00 8.8 - 39, 44 (Avg:44)
Lightweight
344 Gertraud Norton Scarlet Oaks Amica 1 (BC) 4:03:00 19.3, 20.1 19.75 40, 42, 46 (Avg:44)
334 Fia Hasko-Stewart Blake's Heaven Venus 2 4:27:00 20.4, 15.9 17.98 34, 47, 42 (Avg:44)
333 Julie Hooper A'Landell Enigma 3 5:06:00 16.8, 14.6 15.69 30, 36, 41 (Avg:38)
332 Shirley Clark Oso Zoltan 4 5:13:00 16.8, 14.0 15.34 40, 46, 50 (Avg:48)
337 Shelley Chapman Cameo Felspar 5 5:14:00 15.4, 15.0 15.29 32, 47, 46 (Avg:46)
352 Victoria Bice Coolinda Park Sheeza Doll 6 6:01:00 13.6, 12.9 13.30 38, 40, 44 (Avg:42)
351 Noni Seagrim Doongalla Zig Zag 6 6:01:00 13.6, 12.9 13.30 44, 46, 41 (Avg:43)
345 Courtney Anderson Cedar Ridge Jewel 8 6:02:00 13.6, 12.8 13.26 34, 36, 48 (Avg:42)
338 Victoria Edmonds Sylan El Aamira 9 6:21:00 13.6, 11.6 12.60 30, 42, 54 (Avg:48)
343 Vetea Facchini Kalody Park Karisma 10 6:23:00 12.4, 12.5 12.53 38, 44, 42 (Avg:43)
354 Meri Lategan Malvern Copperfield 11 6:24:00 12.3, 12.6 12.50 38, 39, 59 (Avg:49)
350 Indigo Noonan Littlebanks Rustic Wings 12 6:29:00 12.8, 11.8 12.34 40, 41, 52 (Avg:46)
339 Jessica Mitchell Orion 13 6:32:00 12.2, 12.1 12.24 36, 43, 53 (Avg:48)
331 Sue Todd Shakari Bear 14 6:33:00 13.4, 11.1 12.21 34, 44, 49 (Avg:46)
340 Penelope Whatman O.P. Brazen 15 6:40:00 11.8, 12.1 12.00 36, 44, 52 (Avg:48)
347 Shannon Fogg Cedar Ridge Proclaimer 16 6:47:00 11.2, 12.4 11.79 33, 34, 45 (Avg:39)
346 Elizabeth Moir Razorback Inca 16 6:47:00 11.2, 12.4 11.79 40, 36, 41 (Avg:38)
348 Ng Lip Biang Cedar Ridge Cayenne 18 7:18:00 11.4, 10.4 10.96 36, 40, 44 (Avg:42)
349 Mohd Rezuan Bin Husin Cedar Ridge Sentinal 18 7:18:00 11.4, 10.4 10.96 35, 45, 48 (Avg:46)
353 Mary Hollingsworth Sandine Bugatti 20 7:37:00 11.4, 9.6 10.50 32, 54, 50 (Avg:52)
336 Courtney Chapman Kintamani Kimbra 21 7:55:00 10.6, 9.5 10.11 38, 38, 53 (Avg:45)
330 Adeline Gibson Blake's Heaven Summer Reign 22 8:00:00 9.2, 10.8 10.00 38, 35, 45 (Avg:40)
442 Elodie LeLabourier Honey Bee Lame L2 0:00:00 15.4, 14.2 - 32, 34, 43 (Avg:38)
342 Jenny Shepheard Currowan Cruise Lame L2 0:00:00 13.6, 12.9 - 36, 42, 49 (Avg:45)
335 Talea Hasko-Stewart Blake's Heaven Bombora Lame L1 0:00:00 16.1 - 32, 44 (Avg:44)
341 Vicki Mathew Penwisk Sharmarra Withdrawn L1 0:00:00 - - 37, 42 (Avg:42)
Junior
309 Levi Robinson Karumba Beamish 1 (BC) 5:06:00 16.8, 14.6 15.69 37, 42, 41 (Avg:41)
313 Liberty Mercer Temar Mahavee 2 5:18:00 14.6, 15.5 15.09 31, 47, 60 (Avg:53)
303 Emma Cole Baribo 3 6:00:00 13.6, 12.9 13.33 32, 41, 50 (Avg:45)
301 Celia Hodgson Marat MA 4 6:01:00 16.1, 11.1 13.30 40, 43, 54 (Avg:48)
302 Sophie Ramsay Autumnight Goldmine 5 6:09:00 13.1, 12.8 13.01 40, 44, 40 (Avg:42)
310 Lily Wheeler Yinbilliko Jackson 6 6:23:00 12.4, 12.5 12.53 33, 50, 52 (Avg:51)
308 Tahnaya Mercieca Oso Evita 7 6:27:00 12.8, 11.9 12.40 32, 45, 47 (Avg:46)
312 Mackensie Daley Nirvana 8 6:44:00 12.2, 11.5 11.88 36, 41, 47 (Avg:44)
305 Jasmine Zimmerman Trian Moir Jasper 9 7:06:00 11.2, 11.3 11.27 38, 42, 42 (Avg:42)
306 Poppy Kettlewell Oso Nicholas 10 7:26:00 10.8, 10.6 10.76 36, 40, 50 (Avg:45)
307 Kaitlyn Mercieca JRK Spyder 10 7:26:00 10.8, 10.6 10.76 42, 47, 38 (Avg:42)
304 Laura Kelly Love In The Mist Lame L1 0:00:00 20.4 - 33, 48 (Avg:48)
311 Tegan Ashby Lentara Park Heather Lame P/R 0:00:00 - - 38